Time;durP1;ratioP1;P1;durP2;ratioP2;P2;SDS_P1;SDS_P2;PMS_P1;PMS_P2;Temp;Humidity;BMP_temperature;BMP_pressure;BME280_temperature;BME280_humidity;BME280_pressure;Samples;Min_cycle;Max_cycle;Signal;HPM_P1;HPM_P2
2023/08/01 00:00:30;;;;;;;5.25;4.35;;;;;;;19.24;100.00;95831.16;5035299;28;20642;-62
2023/08/01 00:02:56;;;;;;;4.55;4.15;;;;;;;19.28;100.00;95832.38;5040610;28;20211;-61
2023/08/01 00:05:23;;;;;;;4.93;4.18;;;;;;;19.27;100.00;95833.44;5043866;28;20203;-62
2023/08/01 00:07:49;;;;;;;4.53;3.60;;;;;;;19.27;100.00;95831.53;5035401;28;20235;-61
2023/08/01 00:10:18;;;;;;;4.93;4.50;;;;;;;19.30;100.00;95827.63;5037530;28;20208;-61
2023/08/01 00:12:46;;;;;;;4.88;4.47;;;;;;;19.30;100.00;95815.06;5056137;28;20216;-61
2023/08/01 00:15:15;;;;;;;6.70;4.55;;;;;;;19.35;100.00;95800.97;5043411;28;20271;-61
2023/08/01 00:17:42;;;;;;;4.95;4.03;;;;;;;19.38;100.00;95795.16;5050781;28;20207;-62
2023/08/01 00:20:09;;;;;;;5.38;4.47;;;;;;;19.44;100.00;95796.22;5047761;28;20209;-62
2023/08/01 00:22:36;;;;;;;4.45;4.05;;;;;;;19.47;100.00;95793.91;5035824;28;20277;-60
2023/08/01 00:25:02;;;;;;;5.63;4.45;;;;;;;19.52;100.00;95786.00;5036407;28;20228;-61
2023/08/01 00:27:29;;;;;;;4.40;4.00;;;;;;;19.55;100.00;95780.22;5042422;28;20242;-61
2023/08/01 00:29:55;;;;;;;4.50;4.10;;;;;;;19.62;100.00;95778.31;5054721;28;20239;-61
2023/08/01 00:32:25;;;;;;;4.03;3.72;;;;;;;19.69;100.00;95779.06;5054935;28;20211;-61
2023/08/01 00:34:51;;;;;;;4.10;3.72;;;;;;;19.74;100.00;95778.38;5054807;28;20365;-61
2023/08/01 00:37:18;;;;;;;4.55;4.15;;;;;;;19.79;100.00;95774.03;5054878;28;20230;-62
2023/08/01 00:39:44;;;;;;;4.38;3.97;;;;;;;19.84;100.00;95771.47;5054045;28;20203;-62
2023/08/01 00:42:11;;;;;;;3.67;3.38;;;;;;;19.87;100.00;95773.72;5049571;28;20230;-61
2023/08/01 00:44:37;;;;;;;4.30;3.90;;;;;;;19.90;100.00;95763.59;5050296;28;20226;-61
2023/08/01 00:47:05;;;;;;;3.50;3.20;;;;;;;19.94;100.00;95759.44;5054567;28;20231;-60
2023/08/01 00:49:36;;;;;;;4.45;4.03;;;;;;;19.98;100.00;95747.22;5054884;28;20545;-61
2023/08/01 00:52:03;;;;;;;3.90;3.50;;;;;;;20.04;97.46;95744.44;5054580;28;20230;-61
2023/08/01 00:54:35;;;;;;;3.95;3.58;;;;;;;20.10;96.70;95742.72;5054786;28;20214;-61
2023/08/01 00:57:04;;;;;;;4.53;4.07;;;;;;;20.19;89.48;95739.50;5053265;28;20269;-61
2023/08/01 00:59:31;;;;;;;4.05;3.75;;;;;;;20.29;86.62;95737.16;5054337;28;20302;-61
2023/08/01 01:01:58;;;;;;;3.97;3.67;;;;;;;20.34;88.92;95737.28;5044833;28;20655;-62
2023/08/01 01:04:24;;;;;;;4.57;3.42;;;;;;;20.38;91.45;95728.78;5051062;28;20203;-61
2023/08/01 01:06:58;;;;;;;3.92;3.53;;;;;;;20.39;93.46;95723.19;5052955;28;20231;-62
2023/08/01 01:09:25;;;;;;;5.18;3.88;;;;;;;20.40;94.13;95715.97;5053537;28;20242;-62
2023/08/01 01:11:54;;;;;;;3.95;3.60;;;;;;;20.38;93.84;95716.19;5053980;28;20408;-61
2023/08/01 01:14:21;;;;;;;4.38;3.88;;;;;;;20.37;95.38;95711.84;5053339;28;20214;-63
2023/08/01 01:16:48;;;;;;;4.20;3.70;;;;;;;20.35;94.71;95713.94;5054334;28;20207;-63
2023/08/01 01:19:15;;;;;;;3.95;3.53;;;;;;;20.35;95.75;95713.94;5054344;28;20215;-61
2023/08/01 01:22:20;;;;;;;3.90;3.20;;;;;;;20.34;95.70;95707.75;5054363;28;20542;-61
2023/08/01 01:24:47;;;;;;;3.67;3.38;;;;;;;20.29;95.75;95704.94;5042358;28;20257;-63
2023/08/01 01:27:14;;;;;;;3.95;3.63;;;;;;;20.26;97.12;95702.66;5034011;28;20231;-61
2023/08/01 01:29:41;;;;;;;4.32;3.65;;;;;;;20.22;97.59;95690.75;5034271;28;20222;-61
2023/08/01 01:32:08;;;;;;;4.10;3.63;;;;;;;20.20;98.18;95700.06;5047652;28;20208;-62
2023/08/01 01:34:35;;;;;;;4.80;3.65;;;;;;;20.17;93.17;95695.16;5034190;28;20223;-62
2023/08/01 01:37:03;;;;;;;5.55;3.92;;;;;;;20.24;93.06;95698.56;5039324;28;20218;-63
2023/08/01 01:39:32;;;;;;;3.95;3.55;;;;;;;20.24;95.05;95698.56;5034330;28;20536;-61
2023/08/01 01:41:59;;;;;;;5.20;3.45;;;;;;;20.18;95.90;95692.25;5040414;28;20217;-62
2023/08/01 01:44:25;;;;;;;4.22;3.83;;;;;;;20.17;96.29;95693.28;5061807;28;20207;-63
2023/08/01 01:46:51;;;;;;;5.28;3.58;;;;;;;20.16;96.91;95696.19;5060557;28;20227;-62
2023/08/01 01:49:19;;;;;;;4.72;3.90;;;;;;;20.18;96.06;95694.13;5044717;28;20207;-61
2023/08/01 01:51:47;;;;;;;3.80;3.50;;;;;;;20.19;96.00;95693.88;5034316;28;20204;-62
2023/08/01 01:54:13;;;;;;;4.60;3.65;;;;;;;20.17;95.74;95692.47;5034470;28;20218;-62
2023/08/01 01:56:41;;;;;;;3.75;3.45;;;;;;;20.16;96.32;95685.44;5034034;28;20396;-61
2023/08/01 01:59:08;;;;;;;3.67;3.38;;;;;;;20.14;96.62;95690.22;5034171;28;20216;-61
2023/08/01 02:01:34;;;;;;;3.92;3.50;;;;;;;20.13;97.41;95684.03;5034119;28;20288;-62
2023/08/01 02:04:02;;;;;;;3.95;3.65;;;;;;;20.09;98.43;95682.03;5037693;28;20212;-61
2023/08/01 02:06:29;;;;;;;4.43;3.60;;;;;;;20.07;99.46;95678.75;5037501;28;20203;-61
2023/08/01 02:08:57;;;;;;;5.18;3.33;;;;;;;20.04;99.02;95673.84;5037817;28;20208;-63
2023/08/01 02:11:24;;;;;;;5.55;3.55;;;;;;;20.04;98.30;95688.09;5037192;28;20203;-62
2023/08/01 02:13:52;;;;;;;4.15;3.72;;;;;;;20.03;98.65;95686.44;5037779;28;20214;-61
2023/08/01 02:16:20;;;;;;;4.20;3.80;;;;;;;20.02;98.67;95683.97;5039831;28;20208;-62
2023/08/01 02:18:46;;;;;;;3.95;3.40;;;;;;;20.00;99.64;95680.69;5041787;28;20227;-61
2023/08/01 02:21:12;;;;;;;5.35;3.55;;;;;;;20.00;97.61;95683.38;5044279;28;20644;-61
2023/08/01 02:23:39;;;;;;;3.80;3.50;;;;;;;20.00;97.42;95678.84;5039520;28;20212;-62
2023/08/01 02:26:08;;;;;;;4.15;3.63;;;;;;;20.04;96.32;95687.25;5037872;28;20231;-61
2023/08/01 02:28:34;;;;;;;3.60;3.40;;;;;;;20.05;95.93;95678.19;5043712;28;20227;-61
2023/08/01 02:31:02;;;;;;;4.32;3.70;;;;;;;20.08;97.26;95681.22;5048629;28;20233;-61
2023/08/01 02:33:28;;;;;;;4.20;3.70;;;;;;;20.07;98.57;95670.72;5047989;28;20234;-62
2023/08/01 02:35:55;;;;;;;4.13;3.83;;;;;;;20.07;98.90;95673.38;5068872;28;20211;-62
2023/08/01 02:38:21;;;;;;;4.57;3.80;;;;;;;20.04;99.64;95663.94;5059847;28;20206;-63
2023/08/01 02:40:48;;;;;;;4.40;4.00;;;;;;;20.02;99.18;95681.28;5042585;28;20218;-62
2023/08/01 02:43:17;;;;;;;4.57;3.83;;;;;;;19.98;99.57;95669.38;5045125;28;20207;-62
2023/08/01 02:45:44;;;;;;;4.13;3.67;;;;;;;19.97;100.00;95678.47;5050138;28;20210;-62
2023/08/01 02:48:12;;;;;;;3.72;3.42;;;;;;;19.96;100.00;95679.50;5057725;28;20258;-62
2023/08/01 02:50:38;;;;;;;4.18;3.60;;;;;;;19.96;100.00;95682.19;5057715;28;20234;-62
2023/08/01 02:53:06;;;;;;;5.00;4.03;;;;;;;19.98;100.00;95680.13;5050323;28;20218;-62
2023/08/01 02:55:33;;;;;;;3.80;3.50;;;;;;;19.98;100.00;95685.50;5040931;28;20211;-61
2023/08/01 02:58:00;;;;;;;4.07;3.78;;;;;;;19.98;100.00;95682.81;5053116;28;20220;-61
2023/08/01 03:00:27;;;;;;;3.97;3.33;;;;;;;19.98;100.00;95682.81;5039188;28;20652;-61
2023/08/01 03:02:56;;;;;;;3.80;3.50;;;;;;;19.96;100.00;95690.25;5039085;28;20211;-61
2023/08/01 03:05:24;;;;;;;4.60;4.18;;;;;;;19.94;100.00;95690.47;5039225;28;20298;-61
2023/08/01 03:07:52;;;;;;;4.57;3.50;;;;;;;19.93;100.00;95686.16;5041676;28;20234;-60
2023/08/01 03:10:18;;;;;;;4.13;3.72;;;;;;;19.94;100.00;95678.94;5045067;28;20226;-61
2023/08/01 03:12:45;;;;;;;6.85;3.58;;;;;;;19.90;100.00;95683.09;5041709;28;20542;-61
2023/08/01 03:15:12;;;;;;;4.78;4.00;;;;;;;19.85;100.00;95684.59;5045380;28;20354;-61
2023/08/01 03:17:38;;;;;;;4.10;3.70;;;;;;;19.83;100.00;95693.91;5044862;28;20208;-62
2023/08/01 03:20:10;;;;;;;5.45;3.78;;;;;;;19.79;100.00;95703.44;5043406;28;20623;-62
2023/08/01 03:22:39;;;;;;;4.20;3.80;;;;;;;19.72;100.00;95694.66;5037775;28;20640;-61
2023/08/01 03:25:07;;;;;;;6.18;4.18;;;;;;;19.64;100.00;95698.44;5038129;28;20275;-62
2023/08/01 03:27:34;;;;;;;4.75;4.07;;;;;;;19.58;100.00;95703.88;5036603;28;20290;-61
2023/08/01 03:30:00;;;;;;;3.95;3.65;;;;;;;19.55;100.00;95702.47;5038155;28;20215;-62
2023/08/01 03:32:27;;;;;;;5.38;4.03;;;;;;;19.58;100.00;95712.75;5048418;28;20215;-61
2023/08/01 03:34:54;;;;;;;5.20;3.90;;;;;;;19.57;100.00;95715.63;5035420;28;20211;-61
2023/08/01 03:37:20;;;;;;;5.47;4.00;;;;;;;19.56;100.00;95725.53;5042140;28;20207;-61
2023/08/01 03:39:48;;;;;;;5.20;4.03;;;;;;;19.57;100.00;95721.81;5036393;28;20204;-61
2023/08/01 03:42:17;;;;;;;4.20;3.60;;;;;;;19.54;100.00;95708.84;5035981;28;20234;-61
2023/08/01 03:44:43;;;;;;;5.25;3.80;;;;;;;19.55;100.00;95720.41;5036635;28;20246;-62
2023/08/01 03:47:10;;;;;;;4.90;4.05;;;;;;;19.49;100.00;95714.06;5036146;28;20210;-61
2023/08/01 03:49:36;;;;;;;3.83;3.53;;;;;;;19.50;100.00;95709.50;5039106;28;20211;-61
2023/08/01 03:52:05;;;;;;;4.68;4.28;;;;;;;19.50;100.00;95706.84;5057600;28;20211;-62
2023/08/01 03:54:31;;;;;;;4.75;4.10;;;;;;;19.49;100.00;95703.31;5073127;28;20214;-62
2023/08/01 03:56:59;;;;;;;3.38;3.15;;;;;;;19.49;100.00;95708.69;5064226;28;20217;-62
2023/08/01 03:59:27;;;;;;;5.03;4.18;;;;;;;19.48;100.00;95720.47;5036527;28;20215;-62
2023/08/01 04:01:53;;;;;;;4.60;4.20;;;;;;;19.45;100.00;95712.06;5036395;28;20239;-61
2023/08/01 04:04:21;;;;;;;4.82;4.00;;;;;;;19.45;100.00;95714.72;5036234;28;20212;-61
2023/08/01 04:06:47;;;;;;;7.35;3.90;;;;;;;19.44;100.00;95713.09;5036216;28;20219;-61
2023/08/01 04:09:14;;;;;;;4.50;4.13;;;;;;;19.44;100.00;95715.75;5035989;28;20714;-60
2023/08/01 04:11:41;;;;;;;4.18;3.88;;;;;;;19.43;100.00;95720.31;5035524;28;20543;-61
2023/08/01 04:14:09;;;;;;;4.35;3.95;;;;;;;19.41;100.00;95714.34;5036137;28;20216;-61
2023/08/01 04:16:36;;;;;;;4.45;4.05;;;;;;;19.43;100.00;95714.13;5039607;28;20210;-62
2023/08/01 04:19:02;;;;;;;4.40;4.00;;;;;;;19.41;100.00;95717.03;5037868;28;20226;-61
2023/08/01 04:21:29;;;;;;;4.53;4.13;;;;;;;19.37;100.00;95715.78;5042262;28;20207;-61
2023/08/01 04:23:56;;;;;;;5.18;4.68;;;;;;;19.35;100.00;95723.22;5037044;28;20203;-61
2023/08/01 04:26:22;;;;;;;4.55;4.00;;;;;;;19.36;100.00;95720.34;5034438;28;20286;-61
2023/08/01 04:28:49;;;;;;;4.28;3.88;;;;;;;19.36;100.00;95723.03;5035199;28;20632;-60
2023/08/01 04:31:17;;;;;;;3.92;3.53;;;;;;;19.35;100.00;95724.03;5035324;28;20207;-60
2023/08/01 04:33:44;;;;;;;4.03;3.72;;;;;;;19.37;100.00;95731.88;5049107;28;20211;-62
2023/08/01 04:36:11;;;;;;;4.45;4.05;;;;;;;19.37;100.00;95727.34;5039904;28;20277;-61
2023/08/01 04:38:38;;;;;;;4.40;4.00;;;;;;;19.37;100.00;95726.53;5036536;28;20208;-61
2023/08/01 04:41:05;;;;;;;4.60;3.95;;;;;;;19.35;100.00;95728.59;5035059;28;20222;-61
2023/08/01 04:43:32;;;;;;;4.20;3.80;;;;;;;19.35;100.00;95725.91;5034597;28;20212;-61
2023/08/01 04:45:58;;;;;;;5.65;4.55;;;;;;;19.34;100.00;95727.75;5035045;28;20223;-61
2023/08/01 04:48:29;;;;;;;5.57;3.92;;;;;;;19.31;100.00;95738.94;5054900;28;20227;-61
2023/08/01 04:50:55;;;;;;;4.85;4.45;;;;;;;19.20;100.00;95728.91;5041755;28;20208;-63
2023/08/01 04:53:22;;;;;;;6.78;4.43;;;;;;;19.19;100.00;95732.66;5035325;28;20644;-61
2023/08/01 04:55:48;;;;;;;5.22;4.38;;;;;;;19.15;100.00;95727.94;5048480;28;20507;-62
2023/08/01 04:58:15;;;;;;;5.93;4.43;;;;;;;19.08;100.00;95719.94;5035023;28;20204;-62
2023/08/01 05:00:45;;;;;;;4.90;4.43;;;;;;;18.92;100.00;95735.75;5035733;28;20295;-63
2023/08/01 05:03:13;;;;;;;5.35;4.38;;;;;;;18.88;100.00;95738.84;5047482;28;20204;-61
2023/08/01 05:05:41;;;;;;;5.75;4.65;;;;;;;18.83;100.00;95738.69;5035446;28;20212;-61
2023/08/01 05:08:07;;;;;;;5.70;4.20;;;;;;;18.74;100.00;95726.56;5035109;28;20565;-62
2023/08/01 05:10:35;;;;;;;4.65;4.25;;;;;;;18.69;100.00;95722.91;5035092;28;20632;-62
2023/08/01 05:13:03;;;;;;;5.43;4.78;;;;;;;18.68;100.00;95723.94;5034668;28;20888;-61
2023/08/01 05:15:30;;;;;;;4.97;4.40;;;;;;;18.64;100.00;95723.53;5036056;28;20574;-61
2023/08/01 05:17:56;;;;;;;5.57;4.05;;;;;;;18.60;100.00;95714.28;5046083;28;20529;-63
2023/08/01 05:20:23;;;;;;;4.75;4.05;;;;;;;18.58;100.00;95718.22;5042110;28;20199;-62
2023/08/01 05:22:51;;;;;;;6.53;4.13;;;;;;;18.56;100.00;95717.63;5043548;28;20211;-61
2023/08/01 05:25:17;;;;;;;4.82;4.22;;;;;;;18.51;100.00;95726.31;5050516;28;20675;-61
2023/08/01 05:27:45;;;;;;;5.53;4.65;;;;;;;18.49;100.00;95727.53;5034434;28;20644;-61
2023/08/01 05:30:12;;;;;;;5.25;4.25;;;;;;;18.43;100.00;95734.53;5034388;28;20219;-61
2023/08/01 05:32:40;;;;;;;4.35;3.97;;;;;;;18.35;100.00;95738.28;5034464;28;20638;-62
2023/08/01 05:35:08;;;;;;;4.80;4.07;;;;;;;18.28;100.00;95742.06;5034951;28;20212;-62
2023/08/01 05:37:34;;;;;;;5.18;3.65;;;;;;;18.19;100.00;95743.31;5041512;28;20235;-62
2023/08/01 05:40:03;;;;;;;5.28;3.90;;;;;;;18.17;100.00;95734.69;5038861;28;20294;-62
2023/08/01 05:42:31;;;;;;;4.82;4.03;;;;;;;18.13;100.00;95733.47;5042148;28;20254;-62
2023/08/01 05:44:58;;;;;;;6.10;3.70;;;;;;;18.09;100.00;95726.88;5043293;28;20214;-61
2023/08/01 05:47:24;;;;;;;3.92;3.63;;;;;;;18.10;100.00;95731.22;5046727;28;20235;-61
2023/08/01 05:49:51;;;;;;;4.18;3.75;;;;;;;18.13;100.00;95736.13;5052318;28;20231;-61
2023/08/01 05:52:17;;;;;;;4.60;4.13;;;;;;;18.13;100.00;95736.97;5038443;28;20211;-62
2023/08/01 05:54:44;;;;;;;4.30;3.90;;;;;;;18.11;100.00;95740.84;5038702;28;20204;-61
2023/08/01 05:57:12;;;;;;;4.60;3.75;;;;;;;18.15;100.00;95734.06;5038164;28;20299;-64
2023/08/01 05:59:39;;;;;;;4.72;3.88;;;;;;;18.15;100.00;95729.53;5045306;28;20194;-63
2023/08/01 06:02:07;;;;;;;5.30;3.92;;;;;;;18.19;100.00;95727.25;5058267;28;20210;-63
2023/08/01 06:04:33;;;;;;;4.28;3.72;;;;;;;18.23;100.00;95723.13;5059647;28;20206;-64
2023/08/01 06:06:59;;;;;;;4.40;3.92;;;;;;;18.24;100.00;95724.78;5043718;28;20219;-61
2023/08/01 06:09:26;;;;;;;4.80;4.05;;;;;;;18.22;100.00;95722.28;5039096;28;20235;-61
2023/08/01 06:11:53;;;;;;;4.35;3.95;;;;;;;18.24;100.00;95730.13;5038586;28;20238;-61
2023/08/01 06:14:20;;;;;;;5.32;4.05;;;;;;;18.26;100.00;95730.72;5038156;28;20220;-62
2023/08/01 06:16:48;;;;;;;5.05;4.10;;;;;;;18.27;100.00;95732.38;5044411;28;20206;-63
2023/08/01 06:19:15;;;;;;;5.40;3.65;;;;;;;18.30;100.00;95734.63;5038743;28;20219;-62
2023/08/01 06:21:41;;;;;;;3.95;3.63;;;;;;;18.32;100.00;95732.53;5048543;28;20200;-63
2023/08/01 06:24:10;;;;;;;4.20;3.80;;;;;;;18.25;100.00;95721.88;5050822;28;20223;-63
2023/08/01 06:26:37;;;;;;;4.30;3.75;;;;;;;18.29;100.00;95727.63;5045626;28;20659;-63
2023/08/01 06:29:03;;;;;;;4.40;4.03;;;;;;;18.29;100.00;95724.94;5050356;28;20266;-61
2023/08/01 06:31:31;;;;;;;6.05;3.92;;;;;;;18.29;100.00;95719.59;5038425;28;20213;-62
2023/08/01 06:33:58;;;;;;;5.32;4.13;;;;;;;18.29;100.00;95727.63;5038211;28;20214;-62
2023/08/01 06:36:24;;;;;;;4.25;3.67;;;;;;;18.30;100.00;95732.75;5044273;28;20206;-62
2023/08/01 06:38:52;;;;;;;4.25;3.85;;;;;;;18.32;100.00;95727.19;5059263;28;20203;-62
2023/08/01 06:41:20;;;;;;;4.85;4.10;;;;;;;18.34;100.00;95717.09;5044873;28;20548;-61
2023/08/01 06:43:48;;;;;;;4.20;3.90;;;;;;;18.31;100.00;95717.53;5043840;28;20211;-61
2023/08/01 06:46:15;;;;;;;4.60;3.90;;;;;;;18.27;100.00;95698.41;5038698;28;20219;-61
2023/08/01 06:48:43;;;;;;;4.30;3.72;;;;;;;18.25;100.00;95700.47;5045353;28;20254;-61
2023/08/01 06:51:09;;;;;;;4.85;3.80;;;;;;;18.26;100.00;95695.94;5044268;28;20211;-60
2023/08/01 06:53:37;;;;;;;6.40;4.40;;;;;;;18.16;100.00;95684.88;5049342;28;20208;-60
2023/08/01 06:56:03;;;;;;;5.00;3.80;;;;;;;18.15;100.00;95696.59;5037153;28;20211;-60
2023/08/01 06:58:31;;;;;;;4.07;3.67;;;;;;;18.15;100.00;95677.88;5037420;28;20208;-60
2023/08/01 07:00:58;;;;;;;4.72;3.60;;;;;;;18.11;100.00;95690.84;5037348;28;20214;-61
2023/08/01 07:03:26;;;;;;;4.50;4.03;;;;;;;18.03;100.00;95693.75;5037491;28;20219;-60
2023/08/01 07:05:54;;;;;;;5.82;3.97;;;;;;;17.96;100.00;95687.59;5037261;28;20203;-60
2023/08/01 07:08:21;;;;;;;3.97;3.60;;;;;;;17.93;100.00;95688.03;5037211;28;20314;-60
2023/08/01 07:10:50;;;;;;;3.95;3.58;;;;;;;17.99;100.00;95689.88;5037333;28;20250;-61
2023/08/01 07:13:19;;;;;;;4.32;3.88;;;;;;;18.01;100.00;95689.66;5036873;28;20547;-60
2023/08/01 07:15:46;;;;;;;3.85;3.55;;;;;;;18.01;100.00;95687.81;5036923;28;20219;-61
2023/08/01 07:18:13;;;;;;;4.38;3.97;;;;;;;18.06;100.00;95690.69;5043362;28;20212;-60
2023/08/01 07:20:40;;;;;;;3.97;3.45;;;;;;;18.05;100.00;95685.53;5050210;28;20629;-60
2023/08/01 07:23:09;;;;;;;3.88;3.50;;;;;;;18.04;100.00;95692.72;5036858;28;20668;-61
2023/08/01 07:25:36;;;;;;;4.18;3.55;;;;;;;18.03;100.00;95695.63;5051449;28;20310;-61
2023/08/01 07:28:03;;;;;;;4.22;3.83;;;;;;;18.02;100.00;95683.28;5051813;28;20214;-61
2023/08/01 07:30:29;;;;;;;3.92;3.55;;;;;;;18.03;100.00;95675.03;5040831;28;20314;-61
2023/08/01 07:32:56;;;;;;;4.85;3.63;;;;;;;17.98;100.00;95671.34;5040293;28;20547;-61
2023/08/01 07:35:23;;;;;;;4.57;3.83;;;;;;;17.97;100.00;95678.56;5059984;28;20289;-62
2023/08/01 07:37:49;;;;;;;3.67;3.38;;;;;;;17.99;100.00;95673.84;5062280;28;20199;-62
2023/08/01 07:40:17;;;;;;;3.80;3.50;;;;;;;18.01;100.00;95670.94;5059818;28;20215;-62
2023/08/01 07:42:44;;;;;;;7.72;3.80;;;;;;;17.97;100.00;95662.50;5053744;28;20219;-62
2023/08/01 07:45:11;;;;;;;5.45;3.97;;;;;;;18.00;100.00;95662.09;5064554;28;20203;-62
2023/08/01 07:47:38;;;;;;;4.13;3.40;;;;;;;17.94;100.00;95668.28;5052368;28;20227;-61
2023/08/01 07:50:05;;;;;;;4.00;3.60;;;;;;;17.99;100.00;95673.84;5056152;28;20238;-62
2023/08/01 07:52:32;;;;;;;4.90;3.63;;;;;;;18.08;100.00;95680.56;5056361;28;20203;-62
2023/08/01 07:54:58;;;;;;;5.65;4.20;;;;;;;18.08;100.00;95682.44;5058258;28;20207;-62
2023/08/01 07:57:26;;;;;;;5.60;3.92;;;;;;;18.14;100.00;95681.59;5057761;28;20215;-62
2023/08/01 07:59:57;;;;;;;4.53;3.67;;;;;;;18.21;100.00;95674.34;5053645;28;20549;-62
2023/08/01 08:02:26;;;;;;;4.10;3.70;;;;;;;18.25;100.00;95672.88;5056560;28;20199;-61
2023/08/01 08:04:55;;;;;;;4.07;3.78;;;;;;;18.26;100.00;95674.53;5044840;28;20207;-62
2023/08/01 08:07:22;;;;;;;4.55;3.92;;;;;;;18.32;100.00;95670.97;5056253;28;20239;-61
2023/08/01 08:09:48;;;;;;;4.32;3.90;;;;;;;18.34;100.00;95680.47;5054736;28;20219;-63
2023/08/01 08:12:17;;;;;;;3.83;3.53;;;;;;;18.43;100.00;95689.03;5058562;28;20208;-63
2023/08/01 08:14:45;;;;;;;5.00;3.90;;;;;;;18.50;100.00;95697.84;5069425;28;20187;-62
2023/08/01 08:17:12;;;;;;;4.30;3.88;;;;;;;18.45;100.00;95715.59;5062977;28;20222;-61
2023/08/01 08:19:41;;;;;;;4.20;3.63;;;;;;;18.50;100.00;95721.94;5064012;28;20202;-60
2023/08/01 08:22:08;;;;;;;4.25;3.85;;;;;;;18.49;100.00;95722.19;5055907;28;20208;-62
2023/08/01 08:24:35;;;;;;;3.83;3.50;;;;;;;18.48;100.00;95726.72;5045768;28;20203;-62
2023/08/01 08:27:02;;;;;;;4.60;4.15;;;;;;;18.42;100.00;95734.78;5035423;28;20236;-61
2023/08/01 08:29:29;;;;;;;3.75;3.45;;;;;;;18.43;100.00;95747.94;5035950;28;20247;-63
2023/08/01 08:31:56;;;;;;;4.22;3.80;;;;;;;18.39;100.00;95744.03;5035339;28;20219;-61
2023/08/01 08:34:24;;;;;;;4.60;4.10;;;;;;;18.27;100.00;95740.41;5035553;28;20208;-62
2023/08/01 08:36:51;;;;;;;4.15;3.78;;;;;;;18.21;100.00;95742.06;5039864;28;20209;-61
2023/08/01 08:39:18;;;;;;;4.18;3.78;;;;;;;18.18;100.00;95741.66;5035693;28;20200;-62
2023/08/01 08:41:47;;;;;;;4.30;3.72;;;;;;;18.15;100.00;95748.25;5035093;28;20310;-61
2023/08/01 08:44:15;;;;;;;5.47;4.00;;;;;;;18.10;100.00;95734.72;5035412;28;20216;-61
2023/08/01 08:46:45;;;;;;;4.30;3.90;;;;;;;18.23;100.00;95731.16;5035389;28;20241;-61
2023/08/01 08:49:15;;;;;;;4.72;4.05;;;;;;;18.16;100.00;95743.75;5035013;28;20227;-61
2023/08/01 08:51:44;;;;;;;4.00;3.70;;;;;;;18.08;100.00;95747.47;5035917;28;20602;-61
2023/08/01 08:54:11;;;;;;;4.03;3.72;;;;;;;18.11;100.00;95727.47;5048240;28;20551;-62
2023/08/01 08:56:40;;;;;;;4.97;4.47;;;;;;;17.90;100.00;95721.38;5034447;28;20279;-60
2023/08/01 08:59:09;;;;;;;4.47;4.07;;;;;;;17.86;100.00;95725.50;5035340;28;20211;-60
2023/08/01 09:01:36;;;;;;;4.93;4.35;;;;;;;17.86;100.00;95738.88;5035166;28;20212;-61
2023/08/01 09:04:03;;;;;;;4.13;3.83;;;;;;;17.86;100.00;95728.19;5034872;28;20212;-61
2023/08/01 09:06:31;;;;;;;4.28;3.88;;;;;;;17.81;100.00;95754.75;5035639;28;20207;-61
2023/08/01 09:09:04;;;;;;;3.90;3.55;;;;;;;17.75;100.00;95747.53;5034743;28;20667;-60
2023/08/01 09:11:48;;;;;;;4.38;4.05;;;;;;;17.74;100.00;95740.56;5034193;28;20231;-60
2023/08/01 09:14:15;;;;;;;4.55;4.15;;;;;;;17.68;100.00;95736.03;5048235;28;20207;-60
2023/08/01 09:16:42;;;;;;;4.97;4.43;;;;;;;17.67;100.00;95753.13;5046899;28;20269;-60
2023/08/01 09:19:10;;;;;;;4.53;4.13;;;;;;;17.61;100.00;95751.28;5035553;28;20207;-60
2023/08/01 09:21:39;;;;;;;4.63;4.20;;;;;;;17.66;100.00;95748.00;5041262;28;20215;-61
2023/08/01 09:24:10;;;;;;;4.78;4.38;;;;;;;17.68;100.00;95760.09;5035758;28;20199;-60
2023/08/01 09:26:37;;;;;;;5.70;4.55;;;;;;;17.70;100.00;95759.91;5033821;28;20297;-60
2023/08/01 09:29:05;;;;;;;4.95;4.43;;;;;;;17.66;100.00;95762.19;5034114;28;20208;-62
2023/08/01 09:31:35;;;;;;;5.93;4.18;;;;;;;17.56;100.00;95752.91;5034311;28;20212;-60
2023/08/01 09:34:02;;;;;;;4.78;4.38;;;;;;;17.62;100.00;95739.56;5034345;28;20220;-63
2023/08/01 09:36:29;;;;;;;5.80;4.57;;;;;;;17.63;100.00;95748.41;5047696;28;20203;-60
2023/08/01 09:39:00;;;;;;;4.80;4.40;;;;;;;17.70;100.00;95744.69;5034614;28;20212;-62
2023/08/01 09:41:26;;;;;;;4.90;4.32;;;;;;;17.70;100.00;95742.03;5033846;28;20311;-61
2023/08/01 09:43:54;;;;;;;4.60;4.07;;;;;;;17.75;100.00;95744.88;5034199;28;20211;-62
2023/08/01 09:46:22;;;;;;;5.00;4.50;;;;;;;17.77;100.00;95737.47;5034584;28;20226;-62
2023/08/01 09:48:49;;;;;;;6.10;4.32;;;;;;;17.81;100.00;95746.72;5036386;28;20275;-61
2023/08/01 09:51:17;;;;;;;6.22;4.60;;;;;;;17.83;100.00;95741.16;5036912;28;20231;-61
2023/08/01 09:53:49;;;;;;;6.63;4.72;;;;;;;17.92;100.00;95725.72;5044855;28;20215;-60
2023/08/01 09:56:21;;;;;;;4.57;4.10;;;;;;;18.08;100.00;95730.59;5053800;28;20207;-60
2023/08/01 09:58:48;;;;;;;4.65;4.25;;;;;;;18.18;100.00;95730.94;5054594;28;20204;-62
2023/08/01 10:01:16;;;;;;;5.38;4.00;;;;;;;18.29;100.00;95744.50;5053811;28;20207;-62
2023/08/01 10:03:46;;;;;;;6.05;4.22;;;;;;;18.37;100.00;95735.41;5054011;28;20203;-62
2023/08/01 10:06:13;;;;;;;5.05;4.63;;;;;;;18.47;100.00;95726.91;5053913;28;20207;-61
2023/08/01 10:08:41;;;;;;;6.95;4.35;;;;;;;18.49;100.00;95731.03;5054766;28;20207;-61
2023/08/01 10:11:08;;;;;;;5.07;4.57;;;;;;;18.72;100.00;95734.00;5041693;28;20314;-62
2023/08/01 10:13:37;;;;;;;5.28;4.30;;;;;;;18.78;100.00;95748.38;5054148;28;20214;-61
2023/08/01 10:16:03;;;;;;;7.13;4.68;;;;;;;18.78;100.00;95759.09;5053609;28;20207;-60
2023/08/01 10:18:30;;;;;;;6.70;4.80;;;;;;;18.69;100.00;95771.13;5047753;28;20207;-61
2023/08/01 10:20:57;;;;;;;4.85;4.35;;;;;;;18.51;100.00;95758.44;5054084;28;20204;-60
2023/08/01 10:23:24;;;;;;;4.43;4.03;;;;;;;18.48;100.00;95753.47;5065405;28;20211;-62
2023/08/01 10:25:51;;;;;;;4.78;4.13;;;;;;;18.27;100.00;95764.50;5065055;28;20235;-61
2023/08/01 10:28:18;;;;;;;4.68;4.25;;;;;;;18.16;100.00;95755.25;5053062;28;20295;-60
2023/08/01 10:30:45;;;;;;;6.30;4.40;;;;;;;18.13;100.00;95755.69;5055854;28;20232;-61
2023/08/01 10:33:13;;;;;;;4.25;3.88;;;;;;;18.07;100.00;95769.88;5039498;28;20218;-60
2023/08/01 10:35:40;;;;;;;4.40;4.00;;;;;;;17.95;100.00;95778.78;5038976;28;20230;-60
2023/08/01 10:38:09;;;;;;;3.92;3.53;;;;;;;17.96;100.00;95777.75;5044549;28;20208;-60
2023/08/01 10:40:36;;;;;;;4.55;4.03;;;;;;;17.91;100.00;95770.34;5048431;28;20250;-61
2023/08/01 10:43:03;;;;;;;4.30;3.90;;;;;;;17.76;100.00;95765.25;5045102;28;20211;-61
2023/08/01 10:45:30;;;;;;;3.53;3.25;;;;;;;17.74;100.00;95778.00;5041058;28;20212;-61
2023/08/01 10:48:09;;;;;;;3.97;3.53;;;;;;;17.71;100.00;95759.69;5054837;28;20203;-60
2023/08/01 10:50:35;;;;;;;3.60;3.30;;;;;;;17.75;100.00;95766.25;5041472;28;20211;-60
2023/08/01 10:53:06;;;;;;;3.53;3.22;;;;;;;17.76;100.00;95751.88;5041107;28;20219;-61
2023/08/01 10:55:40;;;;;;;4.97;3.67;;;;;;;17.81;100.00;95760.09;5039743;28;20249;-62
2023/08/01 10:58:07;;;;;;;3.78;3.45;;;;;;;17.86;100.00;95760.28;5052653;28;20227;-60
2023/08/01 11:00:33;;;;;;;6.10;3.60;;;;;;;17.85;100.00;95758.63;5037770;28;20207;-61
2023/08/01 11:03:00;;;;;;;3.90;3.60;;;;;;;17.85;100.00;95741.78;5038317;28;20208;-61
2023/08/01 11:05:29;;;;;;;4.65;3.55;;;;;;;17.90;100.00;95753.47;5037007;28;20203;-59
2023/08/01 11:07:56;;;;;;;4.07;3.72;;;;;;;17.95;100.00;95741.34;5036454;28;20523;-61
2023/08/01 11:10:24;;;;;;;3.60;3.30;;;;;;;17.93;100.00;95736.19;5036879;28;20305;-60
2023/08/01 11:12:50;;;;;;;3.45;3.25;;;;;;;17.95;100.00;95733.31;5036157;28;20659;-60
2023/08/01 11:15:19;;;;;;;3.03;2.83;;;;;;;17.94;100.00;95753.88;5037031;28;20211;-59
2023/08/01 11:17:49;;;;;;;3.17;2.88;;;;;;;17.92;100.00;95749.78;5044017;28;20210;-61
2023/08/01 11:20:16;;;;;;;3.63;3.13;;;;;;;17.88;100.00;95774.28;5076638;28;20206;-60
2023/08/01 11:22:53;;;;;;;3.45;3.05;;;;;;;17.87;100.00;95767.28;5036806;28;20208;-60
2023/08/01 11:25:37;;;;;;;3.70;2.75;;;;;;;17.86;100.00;95772.81;5037873;28;20326;-60
2023/08/01 11:28:06;;;;;;;3.42;3.20;;;;;;;17.90;100.00;95771.38;5036422;28;20204;-60